Time;durP1;ratioP1;P1;durP2;ratioP2;P2;SDS_P1;SDS_P2;PMS_P1;PMS_P2;Temp;Humidity;BMP_temperature;BMP_pressure;BME280_temperature;BME280_humidity;BME280_pressure;Samples;Min_cycle;Max_cycle;Signal;HPM_P1;HPM_P2
2023/08/09 00:00:48;;;;;;;6.85;2.58;;;;;;;;;;4895058;29;20079;-73
2023/08/09 00:03:14;;;;;;;9.32;2.70;;;;;;;;;;4884989;29;20127;-73
2023/08/09 00:05:40;;;;;;;6.50;3.10;;;;;;;;;;4896604;29;20044;-73
2023/08/09 00:08:06;;;;;;;5.75;2.88;;;;;;;;;;4893725;29;20089;-74
2023/08/09 00:10:35;;;;;;;7.72;2.55;;;;;;;;;;4884128;29;20063;-73
2023/08/09 00:13:02;;;;;;;6.05;2.30;;;;;;;;;;4896852;29;20390;-73
2023/08/09 00:15:28;;;;;;;12.88;2.63;;;;;;;;;;4898937;29;20083;-72
2023/08/09 00:17:54;;;;;;;7.35;2.17;;;;;;;;;;4883549;29;20044;-73
2023/08/09 00:20:20;;;;;;;7.40;2.47;;;;;;;;;;4898926;29;20040;-73
2023/08/09 00:22:47;;;;;;;9.75;2.60;;;;;;;;;;4898598;29;20052;-73
2023/08/09 00:25:13;;;;;;;6.60;2.65;;;;;;;;;;4898857;29;20458;-73
2023/08/09 00:27:39;;;;;;;7.30;2.40;;;;;;;;;;4897067;29;20068;-74
2023/08/09 00:30:06;;;;;;;12.10;3.17;;;;;;;;;;4898500;29;20047;-73
2023/08/09 00:32:32;;;;;;;6.63;2.80;;;;;;;;;;4898627;29;20048;-74
2023/08/09 00:34:58;;;;;;;9.52;2.33;;;;;;;;;;4896457;29;20045;-74
2023/08/09 00:37:24;;;;;;;7.43;2.30;;;;;;;;;;4894220;29;20105;-73
2023/08/09 00:39:51;;;;;;;10.63;2.47;;;;;;;;;;4897351;29;20064;-73
2023/08/09 00:42:17;;;;;;;7.10;2.20;;;;;;;;;;4898685;29;20103;-73
2023/08/09 00:44:43;;;;;;;6.80;2.45;;;;;;;;;;4898682;29;20105;-73
2023/08/09 00:47:09;;;;;;;7.88;2.35;;;;;;;;;;4897124;29;20049;-73
2023/08/09 00:49:36;;;;;;;5.80;1.70;;;13.70;99.90;;;;;;4898392;29;20041;-74
2023/08/09 00:52:03;;;;;;;6.93;1.92;;;;;;;;;;4897287;29;20077;-73
2023/08/09 00:54:30;;;;;;;3.00;1.60;;;;;;;;;;4898961;29;20051;-73
2023/08/09 00:56:56;;;;;;;5.90;1.70;;;;;;;;;;4883387;29;20044;-73
2023/08/09 00:59:22;;;;;;;6.00;1.67;;;;;;;;;;4898143;29;20088;-73
2023/08/09 01:01:48;;;;;;;5.32;1.67;;;;;;;;;;4898366;29;20407;-73
2023/08/09 01:04:14;;;;;;;2.60;1.48;;;;;;;;;;4897520;29;20059;-73
2023/08/09 01:06:41;;;;;;;6.03;1.60;;;;;;;;;;4882041;29;20068;-73
2023/08/09 01:09:15;;;;;;;4.70;1.60;;;;;;;;;;4898031;29;20036;-73
2023/08/09 01:11:49;;;;;;;4.15;1.80;;;;;;;;;;4898002;29;20044;-74
2023/08/09 01:14:22;;;;;;;5.38;1.48;;;13.20;99.90;;;;;;4898169;29;20036;-73
2023/08/09 01:16:51;;;;;;;4.57;1.73;;;13.50;99.90;;;;;;4897895;29;20047;-74
2023/08/09 01:19:38;;;;;;;3.50;1.40;;;;;;;;;;4896752;29;20052;-73
2023/08/09 01:22:06;;;;;;;8.13;1.73;;;;;;;;;;4896820;29;20037;-73
2023/08/09 01:24:33;;;;;;;6.10;1.67;;;13.60;99.90;;;;;;4882088;29;20475;-73
2023/08/09 01:26:59;;;;;;;7.15;1.60;;;;;;;;;;4864597;29;20052;-74
2023/08/09 01:29:25;;;;;;;4.90;1.63;;;;;;;;;;4897700;29;20036;-74
2023/08/09 01:31:52;;;;;;;7.00;1.42;;;;;;;;;;4897489;29;20127;-73
2023/08/09 01:34:18;;;;;;;4.93;1.35;;;;;;;;;;4897539;29;20036;-74
2023/08/09 01:36:46;;;;;;;5.72;1.63;;;;;;;;;;4897416;29;20036;-73
2023/08/09 01:39:17;;;;;;;4.85;1.50;;;13.40;99.90;;;;;;4897360;29;20056;-73
2023/08/09 01:41:44;;;;;;;3.72;1.60;;;;;;;;;;4897348;29;20041;-73
2023/08/09 01:44:11;;;;;;;6.22;1.60;;;;;;;;;;4897317;29;20120;-73
2023/08/09 01:46:38;;;;;;;4.47;1.48;;;13.30;99.90;;;;;;4896697;29;20055;-73
2023/08/09 01:49:14;;;;;;;3.63;2.00;;;;;;;;;;4896893;29;20041;-73
2023/08/09 01:51:40;;;;;;;4.07;1.30;;;;;;;;;;4883298;29;20053;-73
2023/08/09 01:54:06;;;;;;;12.13;1.60;;;;;;;;;;4896387;29;20440;-74
2023/08/09 01:56:33;;;;;;;5.20;1.50;;;;;;;;;;4881474;29;20127;-73
2023/08/09 01:58:59;;;;;;;7.55;1.67;;;;;;;;;;4895339;29;20041;-73
2023/08/09 02:01:25;;;;;;;6.35;1.48;;;;;;;;;;4897245;29;20033;-74
2023/08/09 02:03:52;;;;;;;3.05;1.33;;;;;;;;;;4897030;29;20064;-73
2023/08/09 02:06:18;;;;;;;5.03;1.52;;;;;;;;;;4896746;29;20059;-73
2023/08/09 02:08:44;;;;;;;2.15;1.50;;;;;;;;;;4895158;29;20037;-73
2023/08/09 02:11:10;;;;;;;2.63;1.52;;;;;;;;;;4895492;29;20367;-73
2023/08/09 02:13:38;;;;;;;5.53;1.70;;;;;;;;;;4895604;29;20041;-73
2023/08/09 02:16:05;;;;;;;3.55;1.60;;;;;;;;;;4896903;29;20395;-73
2023/08/09 02:18:31;;;;;;;6.93;1.60;;;;;;;;;;4892740;29;20050;-73
2023/08/09 02:20:59;;;;;;;5.75;1.67;;;;;;;;;;4894808;29;20419;-73
2023/08/09 02:23:25;;;;;;;5.25;1.70;;;13.20;99.90;;;;;;4895873;29;20049;-73
2023/08/09 02:25:55;;;;;;;9.38;1.77;;;;;;;;;;4881300;29;20049;-73
2023/08/09 02:28:21;;;;;;;3.35;1.48;;;;;;;;;;4894668;29;20059;-73
2023/08/09 02:30:49;;;;;;;6.45;1.58;;;;;;;;;;4896554;29;20737;-73
2023/08/09 02:33:15;;;;;;;2.30;1.42;;;;;;;;;;4895528;29;20044;-73
2023/08/09 02:35:58;;;;;;;4.03;1.50;;;;;;;;;;4878753;29;20435;-70
2023/08/09 02:38:25;;;;;;;9.52;1.67;;;13.10;99.90;;;;;;4880837;29;20051;-70
2023/08/09 02:40:51;;;;;;;4.57;1.85;;;;;;;;;;4896175;29;20056;-70
2023/08/09 02:43:18;;;;;;;5.90;1.52;;;13.10;99.90;;;;;;4896155;29;20048;-70
2023/08/09 02:45:45;;;;;;;2.90;1.35;;;;;;;;;;4879995;29;20088;-70
2023/08/09 02:48:12;;;;;;;6.47;1.50;;;;;;;;;;4893162;29;20055;-70
2023/08/09 02:50:39;;;;;;;5.82;1.40;;;;;;;;;;4894698;29;20048;-70
2023/08/09 02:53:05;;;;;;;5.70;1.65;;;;;;;;;;4894412;29;20072;-72
2023/08/09 02:55:32;;;;;;;6.22;1.92;;;;;;;;;;4895503;29;20040;-69
2023/08/09 02:58:03;;;;;;;2.92;1.52;;;;;;;;;;4880126;29;20036;-70
2023/08/09 03:00:29;;;;;;;9.20;1.95;;;;;;;;;;4894943;29;20049;-69
2023/08/09 03:02:55;;;;;;;5.20;1.50;;;;;;;;;;4895603;29;20044;-69
2023/08/09 03:05:21;;;;;;;5.05;1.80;;;;;;;;;;4893208;29;20047;-69
2023/08/09 03:07:48;;;;;;;4.70;1.50;;;;;;;;;;4880150;29;20045;-69
2023/08/09 03:10:14;;;;;;;6.18;1.48;;;;;;;;;;4895897;29;20047;-68
2023/08/09 03:12:40;;;;;;;2.80;1.45;;;;;;;;;;4895520;29;20044;-69
2023/08/09 03:15:06;;;;;;;6.95;1.60;;;;;;;;;;4892887;29;20546;-70
2023/08/09 03:17:32;;;;;;;3.47;1.88;;;;;;;;;;4894729;29;20045;-73
2023/08/09 03:19:58;;;;;;;5.30;1.77;;;;;;;;;;4894706;29;20521;-73
2023/08/09 03:22:24;;;;;;;8.73;1.88;;;;;;;;;;4879768;29;20466;-73
2023/08/09 03:24:51;;;;;;;6.53;1.67;;;;;;;;;;4893709;29;20056;-73
2023/08/09 03:27:17;;;;;;;6.28;1.52;;;;;;;;;;4890650;29;20041;-73
2023/08/09 03:29:43;;;;;;;5.32;1.63;;;;;;;;;;4893904;29;20044;-73
2023/08/09 03:32:10;;;;;;;7.78;1.83;;;;;;;;;;4894604;29;20115;-73
2023/08/09 03:34:36;;;;;;;5.68;1.90;;;;;;;;;;4894872;29;20041;-73
2023/08/09 03:37:02;;;;;;;5.45;1.67;;;;;;;;;;4879957;29;20052;-73
2023/08/09 03:39:28;;;;;;;4.65;2.00;;;;;;;;;;4893335;29;20061;-73
2023/08/09 03:41:54;;;;;;;6.68;2.10;;;;;;;;;;4895102;29;20635;-73
2023/08/09 03:44:21;;;;;;;6.50;2.50;;;;;;;;;;4897376;29;20077;-73
2023/08/09 03:46:47;;;;;;;5.45;2.53;;;;;;;;;;4883512;29;20052;-73
2023/08/09 03:49:13;;;;;;;6.65;3.15;;;;;;;;;;4896932;29;20479;-74
2023/08/09 03:51:39;;;;;;;7.03;2.28;;;;;;;;;;4868152;29;20131;-75
2023/08/09 03:54:05;;;;;;;10.07;2.50;;;13.30;99.90;;;;;;4899550;29;20037;-75
2023/08/09 03:56:31;;;;;;;5.82;2.45;;;;;;;;;;4883621;29;20052;-75
2023/08/09 03:58:57;;;;;;;9.35;2.75;;;;;;;;;;4883598;29;20257;-75
2023/08/09 04:01:23;;;;;;;11.60;2.83;;;;;;;;;;4899068;29;20043;-75
2023/08/09 04:03:49;;;;;;;8.65;2.47;;;;;;;;;;4899149;29;20546;-75
2023/08/09 04:06:15;;;;;;;6.90;2.30;;;;;;;;;;4898396;29;20037;-75
2023/08/09 04:08:41;;;;;;;5.50;2.35;;;;;;;;;;4898437;29;20112;-75
2023/08/09 04:11:08;;;;;;;5.82;2.45;;;;;;;;;;4883557;29;20112;-74
2023/08/09 04:13:34;;;;;;;8.80;3.03;;;;;;;;;;4899273;29;20083;-75
2023/08/09 04:16:00;;;;;;;6.45;2.83;;;;;;;;;;4883312;29;20092;-74
2023/08/09 04:18:26;;;;;;;6.93;3.03;;;;;;;;;;4899050;29;20407;-75
2023/08/09 04:20:52;;;;;;;7.05;3.20;;;;;;;;;;4899035;29;20041;-75
2023/08/09 04:23:18;;;;;;;9.07;3.00;;;;;;;;;;4885491;29;20052;-76
2023/08/09 04:25:46;;;;;;;7.32;2.97;;;;;;;;;;4897904;29;20051;-75
2023/08/09 04:28:12;;;;;;;10.23;2.72;;;;;;;;;;4899813;29;20139;-75
2023/08/09 04:30:39;;;;;;;7.90;2.83;;;;;;;;;;4898572;29;20037;-75
2023/08/09 04:33:05;;;;;;;6.05;2.92;;;;;;;;;;4897018;29;20096;-75
2023/08/09 04:35:33;;;;;;;10.07;3.30;;;;;;;;;;4897226;29;20068;-73
2023/08/09 04:37:59;;;;;;;7.65;2.83;;;;;;;;;;4897903;29;20510;-72
2023/08/09 04:40:25;;;;;;;5.80;2.40;;;;;;;;;;4898140;29;20060;-74
2023/08/09 04:42:51;;;;;;;11.38;3.10;;;;;;;;;;4898026;29;20123;-73
2023/08/09 04:45:18;;;;;;;5.78;2.95;;;;;;;;;;4898386;29;20044;-73
2023/08/09 04:47:44;;;;;;;7.60;2.58;;;;;;;;;;4898533;29;20096;-73
2023/08/09 04:50:10;;;;;;;7.30;3.45;;;;;;;;;;4898408;29;20036;-73
2023/08/09 04:52:37;;;;;;;7.45;2.63;;;13.30;99.90;;;;;;4896150;29;20037;-73
2023/08/09 04:55:04;;;;;;;12.40;2.70;;;;;;;;;;4897715;29;20444;-73
2023/08/09 04:57:33;;;;;;;7.78;2.50;;;;;;;;;;4899161;29;20041;-73
2023/08/09 04:59:59;;;;;;;10.40;2.40;;;;;;;;;;4898038;29;20561;-72
2023/08/09 05:02:25;;;;;;;5.45;2.40;;;;;;;;;;4897982;29;20615;-73
2023/08/09 05:04:51;;;;;;;6.70;2.42;;;;;;;;;;4898084;29;20036;-73
2023/08/09 05:07:17;;;;;;;10.38;2.67;;;;;;;;;;4882438;29;20052;-73
2023/08/09 05:09:43;;;;;;;6.22;2.72;;;;;;;;;;4897544;29;20050;-71
2023/08/09 05:12:10;;;;;;;6.70;2.58;;;;;;;;;;4897746;29;20038;-73
2023/08/09 05:14:36;;;;;;;5.85;2.67;;;;;;;;;;4896264;29;20090;-73
2023/08/09 05:17:02;;;;;;;12.13;3.85;;;;;;;;;;4897712;29;20043;-73
2023/08/09 05:19:28;;;;;;;8.00;2.67;;;;;;;;;;4898014;29;20056;-72
2023/08/09 05:21:54;;;;;;;5.55;2.80;;;;;;;;;;4898223;29;20052;-73
2023/08/09 05:24:20;;;;;;;8.98;3.55;;;;;;;;;;4883167;29;20044;-73
2023/08/09 05:26:46;;;;;;;6.15;3.15;;;;;;;;;;4897761;29;20044;-73
2023/08/09 05:29:12;;;;;;;8.60;3.55;;;;;;;;;;4897944;29;20450;-73
2023/08/09 05:31:38;;;;;;;15.07;3.67;;;;;;;;;;4897541;29;20047;-74
2023/08/09 05:34:04;;;;;;;19.73;5.13;;;;;;;;;;4897693;29;20487;-73
2023/08/09 05:36:30;;;;;;;14.68;4.78;;;;;;;;;;4882664;29;20040;-74
2023/08/09 05:38:56;;;;;;;10.32;3.97;;;;;;;;;;4896410;29;20051;-73
2023/08/09 05:41:22;;;;;;;14.23;4.15;;;;;;;;;;4897266;29;20068;-74
2023/08/09 05:43:49;;;;;;;9.43;4.18;;;;;;;;;;4897564;29;20048;-73
2023/08/09 05:46:15;;;;;;;9.45;4.07;;;;;;;;;;4897485;29;20045;-74
2023/08/09 05:48:41;;;;;;;15.93;3.42;;;;;;;;;;4897291;29;20049;-74
2023/08/09 05:51:07;;;;;;;9.57;3.30;;;;;;;;;;4897506;29;20040;-74
2023/08/09 05:53:33;;;;;;;13.50;3.60;;;;;;;;;;4881869;29;20123;-73
2023/08/09 05:55:59;;;;;;;9.32;3.60;;;;;;;;;;4897326;29;20096;-70
2023/08/09 05:58:25;;;;;;;11.90;5.43;;;;;;;;;;4897389;29;20131;-70
2023/08/09 06:00:52;;;;;;;13.57;5.43;;;;;;;;;;4881783;29;20082;-70
2023/08/09 06:03:18;;;;;;;15.85;4.45;;;;;;;;;;4896667;29;20127;-70
2023/08/09 06:05:44;;;;;;;13.57;4.70;;;;;;;;;;4898127;29;20048;-70
2023/08/09 06:08:10;;;;;;;13.52;4.80;;;;;;;;;;4895138;29;20128;-70
2023/08/09 06:10:37;;;;;;;12.80;4.30;;;;;;;;;;4896940;29;20479;-70
2023/08/09 06:13:03;;;;;;;13.85;4.70;;;;;;;;;;4896386;29;20116;-70
2023/08/09 06:15:29;;;;;;;17.08;5.30;;;;;;;;;;4880676;29;20040;-70
2023/08/09 06:17:55;;;;;;;14.48;5.18;;;;;;;;;;4888752;29;20460;-70
2023/08/09 06:20:21;;;;;;;14.88;5.05;;;;;;;;;;4894942;29;20064;-69
2023/08/09 06:22:48;;;;;;;9.77;4.32;;;;;;;;;;4897117;29;20179;-69
2023/08/09 06:25:16;;;;;;;9.20;3.63;;;;;;;;;;4880711;29;20480;-69
2023/08/09 06:27:42;;;;;;;13.05;3.83;;;;;;;;;;4897403;29;20488;-69
2023/08/09 06:30:08;;;;;;;19.70;4.97;;;;;;;;;;4897629;29;20052;-69
2023/08/09 06:32:34;;;;;;;11.73;3.50;;;;;;;;;;4893850;29;20511;-69
2023/08/09 06:35:01;;;;;;;13.70;3.72;;;;;;;;;;4863191;29;20041;-70
2023/08/09 06:37:27;;;;;;;12.10;3.13;;;;;;;;;;4884953;29;20369;-69
2023/08/09 06:39:54;;;;;;;12.38;3.40;;;;;;;;;;4897133;29;20072;-69
2023/08/09 06:42:20;;;;;;;16.20;3.53;;;;;;;;;;4897235;29;20127;-69
2023/08/09 06:44:46;;;;;;;11.52;3.90;;;;;;;;;;4884473;29;20072;-69
2023/08/09 06:47:12;;;;;;;8.23;3.47;;;;;;;;;;4881486;29;20135;-69
2023/08/09 06:49:38;;;;;;;11.10;3.63;;;;;;;;;;4881821;29;20838;-69
2023/08/09 06:52:05;;;;;;;12.02;3.40;;;;;;;;;;4890153;29;20136;-70
2023/08/09 06:54:31;;;;;;;8.50;2.92;;;;;;;;;;4884223;29;20116;-73
2023/08/09 06:56:57;;;;;;;18.45;3.55;;;;;;;;;;4883342;29;20071;-73
2023/08/09 06:59:23;;;;;;;12.85;3.33;;;;;;;;;;4882056;29;20044;-74
2023/08/09 07:01:50;;;;;;;10.45;2.60;;;;;;;;;;4900057;29;20491;-74
2023/08/09 07:04:16;;;;;;;9.02;2.92;;;;;;;;;;4883597;29;20482;-74
2023/08/09 07:06:42;;;;;;;12.98;3.00;;;;;;;;;;4888097;29;20049;-70
2023/08/09 07:09:11;;;;;;;15.18;3.67;;;;;;;;;;4889865;29;20061;-70
2023/08/09 07:11:37;;;;;;;11.75;2.85;;;;;;;;;;4887074;29;20052;-70
2023/08/09 07:14:03;;;;;;;5.90;2.50;;;;;;;;;;4887854;29;20044;-69
2023/08/09 07:16:29;;;;;;;8.95;2.45;;;;;;;;;;4883931;29;20513;-70
2023/08/09 07:18:55;;;;;;;7.43;2.08;;;;;;;;;;4891356;29;20128;-69
2023/08/09 07:21:22;;;;;;;9.05;2.15;;;15.90;99.90;;;;;;4900468;29;20552;-70
2023/08/09 07:23:48;;;;;;;4.80;2.20;;;;;;;;;;4890001;29;20063;-69
2023/08/09 07:26:14;;;;;;;7.10;2.53;;;;;;;;;;4887846;29;20403;-70
2023/08/09 07:28:40;;;;;;;6.68;2.40;;;;;;;;;;4880424;29;20052;-70
2023/08/09 07:31:17;;;;;;;4.95;1.90;;;;;;;;;;4875315;29;20041;-70
2023/08/09 07:33:43;;;;;;;6.35;2.25;;;;;;;;;;4888332;29;20096;-70
2023/08/09 07:36:09;;;;;;;6.00;2.05;;;;;;;;;;4904869;29;20486;-70
2023/08/09 07:38:36;;;;;;;8.45;2.00;;;;;;;;;;4891228;29;20563;-71
2023/08/09 07:41:03;;;;;;;6.70;2.13;;;;;;;;;;4881620;29;20053;-71
2023/08/09 07:43:29;;;;;;;8.30;2.20;;;;;;;;;;4890266;29;20049;-70
2023/08/09 07:45:55;;;;;;;6.53;1.92;;;;;;;;;;4867149;29;20049;-70
2023/08/09 07:48:22;;;;;;;6.00;1.80;;;;;;;;;;4884157;29;20136;-70
2023/08/09 07:50:48;;;;;;;7.35;2.00;;;;;;;;;;4889197;29;20123;-70
2023/08/09 07:53:14;;;;;;;4.57;1.80;;;;;;;;;;4884169;29;20048;-70
2023/08/09 07:55:40;;;;;;;11.43;1.98;;;;;;;;;;4878727;29;20068;-70
2023/08/09 07:58:06;;;;;;;6.28;2.15;;;;;;;;;;4887741;29;20051;-71
2023/08/09 08:00:33;;;;;;;7.13;2.00;;;;;;;;;;4879589;29;20056;-69
2023/08/09 08:02:59;;;;;;;8.25;2.33;;;;;;;;;;4892812;29;20052;-70
2023/08/09 08:05:25;;;;;;;8.88;2.17;;;;;;;;;;4878318;29;20045;-69
2023/08/09 08:07:52;;;;;;;7.60;2.35;;;;;;;;;;4877854;29;20436;-70
2023/08/09 08:10:18;;;;;;;7.15;2.47;;;;;;;;;;4889654;29;20518;-71
2023/08/09 08:12:48;;;;;;;9.68;2.25;;;17.10;99.90;;;;;;4893121;29;20411;-71
2023/08/09 08:15:14;;;;;;;10.13;2.42;;;;;;;;;;4893094;29;20056;-70
2023/08/09 08:17:41;;;;;;;4.18;1.88;;;17.30;99.70;;;;;;4893145;29;20526;-71
2023/08/09 08:20:15;;;;;;;5.28;1.80;;;16.70;99.90;;;;;;4878902;29;20044;-71
2023/08/09 08:22:42;;;;;;;4.28;2.08;;;;;;;;;;4892347;29;20399;-71
2023/08/09 08:25:10;;;;;;;8.52;2.13;;;;;;;;;;4878814;29;20041;-71
2023/08/09 08:27:36;;;;;;;8.13;2.90;;;;;;;;;;4877249;29;20415;-71
2023/08/09 08:30:04;;;;;;;5.82;2.28;;;;;;;;;;4889299;29;20049;-70
2023/08/09 08:32:30;;;;;;;8.43;2.25;;;;;;;;;;4871701;29;20049;-70
2023/08/09 08:34:56;;;;;;;6.22;2.40;;;;;;;;;;4865186;29;20072;-70
2023/08/09 08:37:26;;;;;;;6.38;2.00;;;17.50;98.90;;;;;;4880758;29;20049;-70
2023/08/09 08:39:52;;;;;;;9.68;2.58;;;;;;;;;;4880699;29;20145;-70
2023/08/09 08:42:18;;;;;;;6.90;2.40;;;;;;;;;;4887243;29;20060;-71
2023/08/09 08:44:45;;;;;;;8.05;2.30;;;;;;;;;;4890007;29;20096;-71
2023/08/09 08:47:11;;;;;;;13.20;2.75;;;17.50;99.00;;;;;;4893164;29;20087;-71
2023/08/09 08:49:43;;;;;;;6.72;2.40;;;17.80;99.50;;;;;;4889812;29;20044;-70
2023/08/09 08:52:11;;;;;;;4.10;2.00;;;;;;;;;;4873838;29;20047;-71
2023/08/09 08:54:37;;;;;;;5.97;1.95;;;;;;;;;;4868997;29;20041;-71
2023/08/09 08:57:03;;;;;;;8.93;2.22;;;;;;;;;;4896035;29;20088;-71
2023/08/09 08:59:30;;;;;;;4.75;2.17;;;;;;;;;;4880928;29;20117;-71
2023/08/09 09:01:56;;;;;;;7.97;2.55;;;;;;;;;;4886138;29;20049;-71
2023/08/09 09:04:23;;;;;;;5.80;2.00;;;;;;;;;;4884369;29;20108;-71
2023/08/09 09:06:50;;;;;;;4.82;2.00;;;18.30;97.80;;;;;;4887580;29;20052;-71
2023/08/09 09:09:17;;;;;;;6.90;1.90;;;;;;;;;;4880308;29;20082;-71
2023/08/09 09:11:44;;;;;;;7.35;2.00;;;18.50;97.40;;;;;;4880477;29;20097;-71
2023/08/09 09:14:16;;;;;;;6.05;2.20;;;;;;;;;;4890969;29;20044;-70
2023/08/09 09:16:43;;;;;;;4.85;2.20;;;18.40;98.20;;;;;;4898847;29;20051;-71
2023/08/09 09:19:09;;;;;;;8.30;1.90;;;;;;;;;;4881556;29;20052;-70
2023/08/09 09:21:36;;;;;;;8.30;2.00;;;18.40;96.20;;;;;;4895293;29;20423;-70
2023/08/09 09:24:07;;;;;;;6.25;2.10;;;17.90;95.20;;;;;;4879567;29;20418;-69
2023/08/09 09:26:34;;;;;;;7.72;2.30;;;18.60;96.10;;;;;;4879574;29;20467;-70
2023/08/09 09:29:01;;;;;;;10.15;2.20;;;;;;;;;;4878300;29;20041;-70
2023/08/09 09:31:34;;;;;;;11.30;2.33;;;;;;;;;;4879929;29;20044;-70
2023/08/09 09:34:01;;;;;;;4.80;2.03;;;;;;;;;;4882816;29;20051;-74
2023/08/09 09:36:26;;;;;;;7.72;2.25;;;18.70;99.90;;;;;;4897397;29;20372;-70
2023/08/09 09:38:56;;;;;;;7.47;2.47;;;;;;;;;;4899615;29;20051;-70
2023/08/09 09:41:22;;;;;;;9.70;2.35;;;;;;;;;;4897843;29;20407;-70
2023/08/09 09:43:50;;;;;;;5.93;2.30;;;19.50;99.90;;;;;;4882756;29;20050;-70
2023/08/09 09:46:17;;;;;;;6.35;2.38;;;;;;;;;;4898333;29;20384;-70
2023/08/09 09:48:49;;;;;;;8.02;2.33;;;19.30;96.30;;;;;;4882126;29;20049;-70
2023/08/09 09:51:19;;;;;;;5.38;2.13;;;19.30;95.90;;;;;;4895034;29;20056;-70
2023/08/09 09:53:48;;;;;;;4.22;2.00;;;;;;;;;;4864491;29;20052;-70
2023/08/09 09:56:15;;;;;;;7.88;2.10;;;19.30;95.40;;;;;;4891197;29;20055;-70
2023/08/09 09:58:41;;;;;;;4.40;1.92;;;18.30;99.80;;;;;;4864094;29;20059;-71
2023/08/09 10:01:11;;;;;;;4.78;2.10;;;19.90;97.50;;;;;;4882864;29;20119;-70
2023/08/09 10:03:42;;;;;;;9.75;2.38;;;19.50;95.60;;;;;;4898394;29;20047;-70
2023/08/09 10:06:13;;;;;;;7.15;2.42;;;19.60;95.30;;;;;;4898134;29;20136;-70
2023/08/09 10:08:41;;;;;;;4.27;2.37;;;19.60;95.30;;;;;;4882521;29;20056;-74
2023/08/09 10:11:08;;;;;;;7.57;2.10;;;19.10;96.80;;;;;;4894829;29;20772;-74
2023/08/09 10:13:36;;;;;;;7.82;2.25;;;19.60;95.20;;;;;;4879837;29;20057;-74
2023/08/09 10:16:05;;;;;;;9.15;2.70;;;19.60;95.40;;;;;;4889738;29;20045;-74
2023/08/09 10:18:52;;;;;;;8.25;2.40;;;19.90;94.90;;;;;;4897902;29;20051;-74
2023/08/09 10:21:19;;;;;;;7.20;2.33;;;20.20;98.10;;;;;;4895036;29;20053;-74
2023/08/09 10:24:04;;;;;;;8.15;2.50;;;19.60;95.90;;;;;;4879329;29;20125;-74
2023/08/09 10:26:31;;;;;;;9.70;2.63;;;19.60;95.30;;;;;;4888384;29;20045;-70
2023/08/09 10:29:21;;;;;;;4.85;2.42;;;19.60;96.00;;;;;;4882456;29;20051;-70
2023/08/09 10:31:48;;;;;;;10.13;3.30;;;19.80;99.90;;;;;;4886370;29;20125;-70
2023/08/09 10:34:15;;;;;;;8.38;3.22;;;19.20;99.80;;;;;;4896943;29;20052;-70
2023/08/09 10:36:43;;;;;;;10.90;2.55;;;19.70;95.60;;;;;;4882052;29;20084;-70
2023/08/09 10:39:20;;;;;;;6.82;2.55;;;19.20;95.70;;;;;;4898495;29;20131;-70
2023/08/09 10:42:09;;;;;;;6.45;2.83;;;19.70;95.90;;;;;;4897821;29;20103;-70
2023/08/09 10:44:43;;;;;;;6.60;2.30;;;20.50;99.90;;;;;;4888386;29;20056;-70
2023/08/09 10:47:25;;;;;;;8.82;2.70;;;20.00;95.60;;;;;;4897231;29;20041;-70
2023/08/09 10:49:51;;;;;;;5.38;2.58;;;;;;;;;;4897204;29;20041;-70
2023/08/09 10:52:28;;;;;;;7.95;2.58;;;20.30;95.70;;;;;;4897447;29;20135;-70
2023/08/09 10:55:15;;;;;;;9.38;2.45;;;20.20;94.40;;;;;;4896862;29;20498;-70
2023/08/09 10:57:42;;;;;;;8.90;2.40;;;20.20;95.10;;;;;;4897359;29;20048;-70
2023/08/09 11:00:12;;;;;;;3.38;2.15;;;20.20;99.20;;;;;;4897308;29;20187;-70
2023/08/09 11:02:49;;;;;;;9.02;3.25;;;19.80;95.40;;;;;;4896802;29;20115;-70
2023/08/09 11:05:16;;;;;;;4.95;2.47;;;;;;;;;;4905482;29;20056;-70
2023/08/09 11:07:47;;;;;;;6.30;2.38;;;20.30;99.60;;;;;;4863741;29;20056;-70
2023/08/09 11:10:13;;;;;;;9.02;2.40;;;20.60;97.90;;;;;;4881719;29;20036;-70
2023/08/09 11:12:43;;;;;;;4.90;2.13;;;20.80;97.80;;;;;;4895294;29;21563;-70
2023/08/09 11:15:09;;;;;;;7.13;2.38;;;20.70;99.30;;;;;;4884912;29;20044;-70
2023/08/09 11:17:37;;;;;;;5.85;2.00;;;;;;;;;;4886860;29;20060;-70
2023/08/09 11:20:13;;;;;;;5.50;2.47;;;20.00;94.70;;;;;;4885287;29;20048;-73
2023/08/09 11:22:56;;;;;;;5.18;2.00;;;21.00;97.80;;;;;;4883365;29;20455;-73
2023/08/09 11:25:23;;;;;;;5.38;2.33;;;20.50;94.10;;;;;;4896528;29;20554;-73
2023/08/09 11:27:57;;;;;;;8.20;2.60;;;20.50;98.70;;;;;;4878420;29;20063;-74
2023/08/09 11:30:23;;;;;;;7.03;2.47;;;20.80;94.10;;;;;;4890582;29;20136;-74
2023/08/09 11:32:56;;;;;;;8.48;2.25;;;20.50;96.30;;;;;;4866703;29;20048;-74
2023/08/09 11:35:28;;;;;;;9.40;2.30;;;21.80;93.40;;;;;;4880222;29;20049;-73
2023/08/09 11:37:54;;;;;;;8.98;2.17;;;;;;;;;;4891301;29;20048;-73
2023/08/09 11:40:20;;;;;;;12.82;2.22;;;20.60;97.20;;;;;;4893151;29;20053;-75
2023/08/09 11:42:46;;;;;;;8.73;2.40;;;21.40;92.20;;;;;;4886489;29;20550;-72
2023/08/09 11:45:12;;;;;;;5.75;1.90;;;;;;;;;;4875941;29;20127;-72
2023/08/09 11:47:38;;;;;;;12.23;2.10;;;;;;;;;;4891450;29;20072;-72
2023/08/09 11:50:18;;;;;;;13.50;3.22;;;21.20;90.60;;;;;;4893285;29;20376;-72
2023/08/09 11:52:44;;;;;;;15.45;2.03;;;;;;;;;;4877797;29;20048;-72
2023/08/09 11:55:10;;;;;;;10.05;2.92;;;;;;;;;;4877959;29;20047;-72
2023/08/09 11:57:36;;;;;;;7.70;2.33;;;20.90;92.10;;;;;;4878001;29;20053;-72
2023/08/09 12:00:02;;;;;;;5.95;2.05;;;;;;;;;;4862185;29;20052;-73
2023/08/09 12:02:28;;;;;;;6.57;2.10;;;21.70;95.70;;;;;;4878986;29;20045;-73
2023/08/09 12:04:54;;;;;;;8.60;2.15;;;20.60;96.00;;;;;;4863221;29;20093;-70
2023/08/09 12:07:21;;;;;;;13.07;2.70;;;21.00;92.30;;;;;;4882581;29;20049;-70
2023/08/09 12:09:49;;;;;;;11.82;2.50;;;21.30;95.50;;;;;;4881390;29;20053;-70
2023/08/09 12:12:16;;;;;;;8.73;2.20;;;19.90;93.20;;;;;;4881351;29;20049;-72
2023/08/09 12:14:48;;;;;;;13.52;2.72;;;21.70;97.10;;;;;;4895645;29;20045;-73
2023/08/09 12:17:25;;;;;;;14.90;3.40;;;21.90;96.00;;;;;;4881213;29;20132;-73
2023/08/09 12:19:52;;;;;;;8.20;2.45;;;22.10;97.40;;;;;;4891060;29;20041;-73
2023/08/09 12:22:18;;;;;;;10.07;2.60;;;22.20;96.90;;;;;;4899898;29;20123;-72
2023/08/09 12:24:44;;;;;;;8.70;2.15;;;;;;;;;;4899828;29;20144;-72
2023/08/09 12:27:11;;;;;;;12.05;2.20;;;;;;;;;;4891105;29;20044;-73
2023/08/09 12:29:37;;;;;;;11.23;2.33;;;;;;;;;;4894929;29;20347;-69
2023/08/09 12:32:03;;;;;;;14.73;2.17;;;;;;;;;;4891925;29;20041;-71
2023/08/09 12:34:30;;;;;;;11.65;2.45;;;21.40;92.40;;;;;;4896225;29;20467;-73
2023/08/09 12:36:56;;;;;;;16.65;2.40;;;22.00;93.00;;;;;;4882089;29;20084;-74
2023/08/09 12:39:22;;;;;;;11.73;2.10;;;21.20;96.10;;;;;;4881077;29;20131;-74
2023/08/09 12:41:48;;;;;;;12.00;2.67;;;;;;;;;;4893313;29;20495;-74
2023/08/09 12:44:14;;;;;;;11.00;2.58;;;20.70;95.90;;;;;;4880936;29;20123;-75
2023/08/09 12:46:40;;;;;;;16.65;2.53;;;;;;;;;;4891598;29;20127;-75
2023/08/09 12:49:06;;;;;;;10.40;2.47;;;21.50;96.50;;;;;;4883712;29;20123;-74
2023/08/09 12:51:32;;;;;;;10.85;2.33;;;;;;;;;;4898676;29;20044;-75
2023/08/09 12:53:58;;;;;;;18.20;2.65;;;;;;;;;;4882567;29;20505;-74
2023/08/09 12:56:25;;;;;;;12.60;2.38;;;21.80;92.90;;;;;;4896190;29;20096;-76
2023/08/09 12:58:51;;;;;;;15.98;2.92;;;21.50;95.90;;;;;;4880632;29;20053;-75
2023/08/09 13:01:20;;;;;;;18.77;2.45;;;20.90;93.70;;;;;;4891446;29;20048;-76
2023/08/09 13:03:48;;;;;;;15.15;2.30;;;21.10;90.90;;;;;;4899430;29;20048;-76
2023/08/09 13:06:18;;;;;;;11.75;2.08;;;21.30;90.20;;;;;;4889499;29;20447;-75
2023/08/09 13:08:45;;;;;;;14.82;2.72;;;21.80;94.80;;;;;;4880182;29;20051;-76
2023/08/09 13:11:11;;;;;;;6.63;2.10;;;20.80;94.80;;;;;;4867691;29;20096;-73
2023/08/09 13:13:38;;;;;;;11.20;2.13;;;21.70;94.90;;;;;;4883643;29;20087;-75
2023/08/09 13:16:07;;;;;;;10.77;2.17;;;20.20;95.20;;;;;;4898085;29;20041;-76
2023/08/09 13:18:37;;;;;;;11.73;2.20;;;21.40;91.60;;;;;;4883101;29;20052;-76
2023/08/09 13:21:04;;;;;;;14.38;2.65;;;20.00;95.50;;;;;;4899990;29;20087;-75
2023/08/09 13:23:30;;;;;;;7.65;2.28;;;20.90;91.40;;;;;;4883159;29;20555;-76
2023/08/09 13:25:57;;;;;;;10.45;2.30;;;;;;;;;;4898795;29;20051;-74
2023/08/09 13:28:23;;;;;;;9.27;2.30;;;;;;;;;;4898660;29;20053;-75
2023/08/09 13:30:48;;;;;;;14.52;2.40;;;21.70;95.70;;;;;;4898712;29;20052;-74
2023/08/09 13:33:15;;;;;;;15.98;2.70;;;;;;;;;;4882660;29;20050;-74
2023/08/09 13:35:47;;;;;;;10.80;2.60;;;20.90;95.30;;;;;;4899420;29;20120;-74
2023/08/09 13:38:31;;;;;;;8.45;2.15;;;21.20;90.40;;;;;;4895550;29;20387;-73
2023/08/09 13:40:58;;;;;;;12.32;2.72;;;20.80;95.80;;;;;;4894074;29;20067;-75
2023/08/09 13:43:25;;;;;;;10.98;2.30;;;20.90;96.10;;;;;;4883208;29;20045;-75
2023/08/09 13:45:51;;;;;;;15.32;2.60;;;21.10;96.10;;;;;;4895465;29;20041;-74
2023/08/09 13:48:17;;;;;;;14.40;2.03;;;;;;;;;;4892072;29;20205;-74
2023/08/09 13:50:46;;;;;;;13.35;2.33;;;21.50;96.30;;;;;;4891630;29;20398;-74
2023/08/09 13:53:12;;;;;;;15.18;2.72;;;;;;;;;;4897952;29;20057;-74
2023/08/09 13:55:39;;;;;;;5.70;1.90;;;;;;;;;;4898720;29;20068;-73
2023/08/09 13:58:05;;;;;;;21.90;3.55;;;21.60;96.40;;;;;;4882393;29;21932;-74
2023/08/09 14:00:31;;;;;;;12.05;2.42;;;;;;;;;;4899274;29;20036;-74
2023/08/09 14:02:57;;;;;;;20.10;2.72;;;21.60;96.20;;;;;;4897570;29;20123;-74